Time;durP1;ratioP1;P1;durP2;ratioP2;P2;SDS_P1;SDS_P2;PMS_P1;PMS_P2;Temp;Humidity;BMP_temperature;BMP_pressure;BME280_temperature;BME280_humidity;BME280_pressure;Samples;Min_cycle;Max_cycle;Signal;HPM_P1;HPM_P2
2022/09/10 00:01:19;;;;;;;1.52;0.50;;;;;;;14.66;70.52;92857.00;2053973;70;20142;-75
2022/09/10 00:03:50;;;;;;;2.38;0.60;;;;;;;14.61;71.34;92858.91;2047360;70;20201;-75
2022/09/10 00:06:20;;;;;;;1.80;0.50;;;;;;;14.52;71.96;92861.97;2051251;70;20190;-75
2022/09/10 00:08:48;;;;;;;2.30;0.63;;;;;;;14.49;72.45;92864.00;2053855;70;20218;-75
2022/09/10 00:11:15;;;;;;;0.93;0.70;;;;;;;14.53;71.74;92866.28;2046550;70;20318;-75
2022/09/10 00:13:42;;;;;;;3.00;0.70;;;;;;;14.52;72.35;92861.97;2047643;70;20712;-75
2022/09/10 00:16:11;;;;;;;3.38;0.60;;;;;;;14.59;71.63;92863.75;2053908;69;20250;-75
2022/09/10 00:18:37;;;;;;;1.60;0.95;;;;;;;14.62;71.73;92854.00;2053973;70;20148;-76
2022/09/10 00:21:07;;;;;;;0.95;0.60;;;;;;;14.62;71.73;92859.66;2050610;70;20239;-75
2022/09/10 00:23:33;;;;;;;0.68;0.60;;;;;;;14.59;72.13;92864.47;2051062;70;20205;-74
2022/09/10 00:25:59;;;;;;;1.30;0.80;;;;;;;14.46;73.36;92865.22;2051126;70;20298;-74
2022/09/10 00:28:27;;;;;;;6.32;0.60;;;;;;;14.46;73.20;92860.28;2049739;70;20553;-74
2022/09/10 00:30:54;;;;;;;4.60;0.73;;;;;;;14.50;73.16;92871.13;2053771;70;20150;-75
2022/09/10 00:33:21;;;;;;;1.65;0.60;;;;;;;14.51;73.00;92864.06;2047066;70;20153;-74
2022/09/10 00:35:47;;;;;;;1.60;0.65;;;;;;;14.30;74.58;92862.34;2047442;70;20157;-77
2022/09/10 00:38:17;;;;;;;1.65;0.70;;;;;;;14.37;73.43;92854.88;2053741;70;20185;-74
2022/09/10 00:40:43;;;;;;;3.50;0.70;;;;;;;14.52;72.36;92856.31;2049076;70;20245;-74
2022/09/10 00:43:20;;;;;;;0.77;0.75;;;;;;;14.47;72.88;92858.19;2050704;70;20158;-74
2022/09/10 00:45:53;;;;;;;1.92;0.93;;;;;;;14.47;73.48;92856.09;2050598;70;20621;-74
2022/09/10 00:48:29;;;;;;;1.58;0.70;;;;;;;14.51;73.07;92849.91;2049850;70;20170;-74
2022/09/10 00:51:03;;;;;;;1.67;0.93;;;;;;;14.57;72.29;92849.47;2053089;70;20168;-75
2022/09/10 00:53:29;;;;;;;2.83;0.60;;;;;;;14.56;73.00;92845.19;2053096;70;20231;-75
2022/09/10 00:55:59;;;;;;;1.95;0.77;;;;;;;14.57;72.68;92841.72;2053031;70;20342;-76
2022/09/10 00:58:27;;;;;;;3.03;0.50;;;;;;;14.56;72.38;92839.50;2047618;70;20130;-74
2022/09/10 01:00:57;;;;;;;0.70;0.60;;;;;;;14.56;71.92;92837.41;2050479;70;20614;-75
2022/09/10 01:03:23;;;;;;;1.33;0.52;;;;;;;14.63;71.39;92833.50;2052104;70;20614;-74
2022/09/10 01:05:50;;;;;;;1.95;0.60;;;;;;;14.45;72.73;92841.84;2044573;70;20244;-75
2022/09/10 01:08:18;;;;;;;1.15;0.50;;;;;;;14.62;70.79;92848.31;2047971;70;20177;-75
2022/09/10 01:11:10;;;;;;;1.70;0.90;;;;;;;14.31;73.53;92852.47;2049514;70;20653;-73
2022/09/10 01:13:38;;;;;;;2.85;1.20;;;;;;;14.45;72.72;92849.59;2044505;70;20150;-74
2022/09/10 01:16:07;;;;;;;3.53;0.93;;;;;;;14.39;73.52;92850.03;2047229;70;20224;-73
2022/09/10 01:18:41;;;;;;;3.40;0.90;;;;;;;14.48;72.26;92843.44;2048093;70;20233;-74
2022/09/10 01:21:45;;;;;;;1.98;0.70;;;;;;;14.49;72.02;92842.06;2048152;70;20164;-75
2022/09/10 01:24:31;;;;;;;0.75;0.63;;;;;;;14.52;71.65;92834.38;2044420;70;20150;-75
2022/09/10 01:26:57;;;;;;;1.98;0.70;;;;;;;14.16;74.55;92839.00;2045224;70;20237;-75
2022/09/10 01:29:34;;;;;;;2.72;0.70;;;;;;;14.27;73.69;92832.44;2042298;70;20142;-74
2022/09/10 01:32:14;;;;;;;1.55;0.80;;;;;;;14.23;74.14;92832.25;2042470;70;20235;-74
2022/09/10 01:35:09;;;;;;;1.98;0.80;;;;;;;14.26;73.63;92831.00;2043682;70;20581;-75
2022/09/10 01:37:37;;;;;;;1.60;0.70;;;;;;;14.23;72.69;92824.47;2044854;70;20173;-75
2022/09/10 01:40:07;;;;;;;0.82;0.47;;;;;;;14.19;72.81;92812.94;2045104;70;20325;-74
2022/09/10 01:42:37;;;;;;;3.13;0.80;;;;;;;14.14;73.17;92822.63;2042300;70;20238;-73
2022/09/10 01:45:03;;;;;;;1.25;0.63;;;;;;;14.15;72.60;92826.16;2039379;70;20170;-73
2022/09/10 01:47:50;;;;;;;0.80;0.50;;;;;;;14.16;72.05;92827.66;2039690;70;20841;-73
2022/09/10 01:50:37;;;;;;;3.13;0.60;;;;;;;14.11;71.91;92826.72;2039879;70;20239;-73
2022/09/10 01:53:22;;;;;;;1.98;0.60;;;;;;;13.93;73.25;92820.88;2044073;70;20143;-75
2022/09/10 01:56:01;;;;;;;1.92;0.60;;;;;;;13.90;72.67;92819.31;2043826;70;20162;-74
2022/09/10 01:58:40;;;;;;;4.00;0.70;;;;;;;13.90;73.48;92824.97;2046219;70;20332;-74
2022/09/10 02:01:23;;;;;;;1.48;0.63;;;;;;;14.01;72.38;92822.63;2050040;70;20171;-75
2022/09/10 02:03:54;;;;;;;0.98;0.60;;;;;;;13.95;72.76;92820.25;2052462;70;20159;-74
2022/09/10 02:06:28;;;;;;;2.50;0.60;;;;;;;14.05;71.79;92815.09;2048140;70;20153;-74
2022/09/10 02:08:58;;;;;;;0.98;0.70;;;;;;;13.98;72.26;92816.16;2049994;70;20154;-73
2022/09/10 02:11:25;;;;;;;3.70;0.77;;;;;;;13.87;73.27;92825.50;2052822;70;20165;-75
2022/09/10 02:13:52;;;;;;;1.52;0.75;;;;;;;13.87;73.09;92825.50;2045645;70;20195;-75
2022/09/10 02:16:39;;;;;;;2.88;0.73;;;;;;;13.82;73.09;92830.22;2051408;70;20273;-74
2022/09/10 02:19:06;;;;;;;2.75;0.95;;;;;;;13.86;73.25;92824.03;2051866;70;20170;-75
2022/09/10 02:21:32;;;;;;;1.10;0.80;;;;;;;13.82;73.61;92824.56;2045201;70;20138;-75
2022/09/10 02:24:04;;;;;;;2.25;0.82;;;;;;;13.82;73.12;92813.22;2053306;70;20248;-75
2022/09/10 02:26:36;;;;;;;2.20;0.65;;;;;;;13.79;73.56;92819.41;2049851;70;20161;-75
2022/09/10 02:29:05;;;;;;;4.55;0.70;;;;;;;13.73;72.92;92809.25;2050601;70;20177;-75
2022/09/10 02:31:30;;;;;;;1.63;0.80;;;;;;;13.72;73.33;92807.06;2051891;70;20610;-75
2022/09/10 02:33:56;;;;;;;0.82;0.63;;;;;;;13.66;73.76;92815.97;2049399;70;20193;-74
2022/09/10 02:36:25;;;;;;;0.77;0.60;;;;;;;13.60;73.42;92801.50;2047111;70;20162;-75
2022/09/10 02:38:52;;;;;;;2.40;0.70;;;;;;;13.60;73.29;92800.78;2050604;70;20142;-76
2022/09/10 02:41:20;;;;;;;2.78;0.80;;;;;;;13.52;73.78;92803.22;2050591;70;20162;-75
2022/09/10 02:43:46;;;;;;;2.05;0.70;;;;;;;13.51;73.34;92796.78;2050115;70;20157;-73
2022/09/10 02:46:12;;;;;;;1.92;0.63;;;;;;;13.47;72.48;92786.03;2050771;70;20150;-75
2022/09/10 02:48:38;;;;;;;0.57;0.57;;;;;;;13.50;72.90;92788.94;2047508;70;20262;-75
2022/09/10 02:51:05;;;;;;;2.40;0.80;;;;;;;13.44;73.34;92795.03;2046894;70;20153;-74
2022/09/10 02:53:31;;;;;;;1.45;0.70;;;;;;;13.44;72.57;92803.53;2048849;70;20155;-75
2022/09/10 02:56:01;;;;;;;1.75;0.47;;;;;;;13.38;72.95;92809.59;2050503;70;20218;-73
2022/09/10 02:58:30;;;;;;;2.13;0.60;;;;;;;13.51;72.47;92824.34;2043866;70;20150;-74
2022/09/10 03:01:14;;;;;;;1.13;0.60;;;;;;;13.58;71.34;92824.03;2048013;70;20177;-75
2022/09/10 03:03:41;;;;;;;2.63;0.85;;;;;;;13.28;73.77;92828.09;2048745;70;20561;-74
2022/09/10 03:06:07;;;;;;;9.65;1.05;;;;;;;13.33;73.52;92824.13;2047149;70;20235;-75
2022/09/10 03:08:34;;;;;;;2.58;1.00;;;;;;;13.10;74.72;92813.72;2049284;70;20146;-75
2022/09/10 03:11:00;;;;;;;1.65;0.60;;;;;;;13.25;74.88;92807.50;2048367;70;20150;-75
2022/09/10 03:13:26;;;;;;;0.75;0.52;;;;;;;13.35;73.83;92796.72;2052629;70;20158;-75
2022/09/10 03:15:53;;;;;;;1.33;1.00;;;;;;;13.45;73.37;92791.56;2047404;70;20154;-76
2022/09/10 03:18:21;;;;;;;1.33;0.75;;;;;;;13.46;73.41;92790.19;2047486;70;20146;-75
2022/09/10 03:20:48;;;;;;;2.92;0.80;;;;;;;13.47;73.76;92785.31;2046675;70;20208;-73
2022/09/10 03:23:14;;;;;;;1.63;0.70;;;;;;;13.47;73.46;92776.81;2049627;70;20598;-74
2022/09/10 03:25:40;;;;;;;3.92;0.75;;;;;;;13.36;74.13;92764.22;2050560;70;20206;-74
2022/09/10 03:28:08;;;;;;;5.32;0.90;;;;;;;13.47;72.51;92760.59;2049583;70;20293;-75
2022/09/10 03:30:35;;;;;;;1.58;0.73;;;;;;;13.05;75.11;92755.50;2049985;70;20233;-74
2022/09/10 03:33:02;;;;;;;1.92;0.70;;;;;;;13.34;73.11;92749.28;2051896;69;20166;-74
2022/09/10 03:35:29;;;;;;;4.72;0.73;;;;;;;13.44;72.16;92746.97;2046845;70;20183;-76
2022/09/10 03:37:55;;;;;;;1.98;0.60;;;;;;;13.34;73.13;92754.94;2053171;70;20189;-75
2022/09/10 03:40:22;;;;;;;1.48;0.60;;;;;;;13.35;73.30;92764.88;2049672;70;20293;-75
2022/09/10 03:42:47;;;;;;;1.83;0.80;;;;;;;13.29;73.19;92761.75;2050336;70;20143;-74
2022/09/10 03:45:14;;;;;;;3.38;0.60;;;;;;;13.26;73.94;92766.53;2047203;70;20233;-75
2022/09/10 03:47:41;;;;;;;0.57;0.57;;;;;;;13.35;72.32;92776.19;2047357;70;20237;-76
2022/09/10 03:50:07;;;;;;;1.60;0.90;;;;;;;13.36;72.89;92775.53;2046413;70;20193;-76
2022/09/10 03:52:34;;;;;;;0.77;0.63;;;;;;;13.35;73.06;92782.56;2047820;70;20320;-75
2022/09/10 03:55:00;;;;;;;1.75;0.77;;;;;;;13.39;72.54;92790.53;2050549;70;20177;-74
2022/09/10 03:57:26;;;;;;;3.30;0.85;;;;;;;13.36;72.94;92794.59;2050636;70;20620;-74
2022/09/10 03:59:52;;;;;;;4.90;0.85;;;;;;;13.37;73.21;92804.56;2053459;70;20146;-75
2022/09/10 04:02:18;;;;;;;3.30;0.90;;;;;;;13.25;74.15;92807.50;2051266;70;20146;-74
2022/09/10 04:04:45;;;;;;;1.35;0.90;;;;;;;13.37;73.56;92816.59;2047553;70;20177;-74
2022/09/10 04:07:11;;;;;;;2.80;0.80;;;;;;;13.37;73.52;92815.84;2047419;70;20142;-74
2022/09/10 04:09:37;;;;;;;1.35;0.80;;;;;;;13.42;73.63;92814.72;2050049;70;20222;-75
2022/09/10 04:12:02;;;;;;;1.05;0.70;;;;;;;13.42;73.19;92798.50;2051968;70;20198;-75
2022/09/10 04:14:30;;;;;;;0.50;0.50;;;;;;;13.44;71.43;92795.75;2047270;70;20673;-76
2022/09/10 04:16:57;;;;;;;4.75;0.73;;;;;;;13.41;72.42;92788.53;2047004;70;20520;-76
2022/09/10 04:19:26;;;;;;;2.25;0.82;;;;;;;13.26;74.55;92785.59;2049633;70;20158;-76
2022/09/10 04:21:52;;;;;;;1.10;0.77;;;;;;;13.29;73.92;92779.44;2049458;70;20277;-76
2022/09/10 04:24:18;;;;;;;0.85;0.60;;;;;;;13.32;73.85;92780.25;2053909;70;20234;-74
2022/09/10 04:26:44;;;;;;;2.25;0.77;;;;;;;13.33;74.28;92782.47;2049986;70;20360;-75
2022/09/10 04:29:11;;;;;;;6.90;0.73;;;;;;;13.30;73.22;92783.72;2046938;70;20606;-75
2022/09/10 04:31:37;;;;;;;0.93;0.63;;;;;;;13.30;74.07;92780.16;2048741;70;20637;-74
2022/09/10 04:34:09;;;;;;;0.90;0.43;;;;;;;13.32;73.84;92786.66;2042944;70;20306;-75
2022/09/10 04:36:35;;;;;;;3.05;0.70;;;;;;;13.38;72.87;92792.63;2046626;70;20158;-74
2022/09/10 04:39:01;;;;;;;0.93;0.75;;;;;;;13.18;73.74;92797.19;2047152;70;20150;-74
2022/09/10 04:41:27;;;;;;;5.05;0.90;;;;;;;13.22;74.21;92794.59;2048583;70;20157;-74
2022/09/10 04:43:53;;;;;;;1.40;0.70;;;;;;;13.19;74.32;92787.34;2043702;70;21760;-74
2022/09/10 04:46:19;;;;;;;2.38;0.70;;;;;;;13.15;74.76;92778.66;2042859;70;20230;-75
2022/09/10 04:48:48;;;;;;;0.65;0.50;;;;;;;13.11;74.70;92782.00;2043500;70;20223;-75
2022/09/10 04:51:18;;;;;;;5.55;0.70;;;;;;;13.20;73.90;92772.59;2043877;70;20571;-74
2022/09/10 04:53:46;;;;;;;1.85;0.50;;;;;;;13.17;73.81;92768.19;2051757;69;20234;-75
2022/09/10 04:56:13;;;;;;;0.65;0.55;;;;;;;13.10;74.20;92776.97;2046941;70;20146;-75
2022/09/10 04:58:39;;;;;;;1.73;0.60;;;;;;;13.09;73.90;92775.50;2050510;70;20181;-74
2022/09/10 05:01:06;;;;;;;3.85;0.70;;;;;;;13.22;73.82;92774.81;2050567;70;20138;-74
2022/09/10 05:03:32;;;;;;;8.48;1.83;;;;;;;12.99;75.48;92781.34;2048940;70;20562;-74
2022/09/10 05:05:58;;;;;;;1.35;1.10;;;;;;;13.18;74.17;92778.13;2047250;70;20171;-74
2022/09/10 05:08:23;;;;;;;5.65;1.10;;;;;;;13.20;74.68;92786.72;2049470;70;21972;-75
2022/09/10 05:10:54;;;;;;;3.17;1.10;;;;;;;13.26;74.53;92797.66;2047161;70;20170;-75
2022/09/10 05:13:21;;;;;;;1.77;0.80;;;;;;;13.19;75.00;92799.41;2047923;70;20155;-75
2022/09/10 05:15:46;;;;;;;3.38;0.70;;;;;;;13.30;73.34;92792.19;2050817;70;20169;-75
2022/09/10 05:18:15;;;;;;;1.17;1.00;;;;;;;12.91;76.67;92795.78;2046443;70;20162;-74
2022/09/10 05:20:44;;;;;;;2.95;1.20;;;;;;;12.81;76.82;92798.06;2051019;70;20236;-74
2022/09/10 05:23:10;;;;;;;5.95;1.30;;;;;;;12.45;78.95;92806.00;2051758;70;20146;-75
2022/09/10 05:25:36;;;;;;;3.20;1.38;;;;;;;12.89;77.01;92809.81;2046822;70;20154;-75
2022/09/10 05:28:04;;;;;;;2.22;1.38;;;;;;;13.01;76.16;92806.88;2047789;70;20554;-76
2022/09/10 05:30:31;;;;;;;1.85;1.05;;;;;;;13.19;74.19;92815.59;2050081;70;20181;-76
2022/09/10 05:32:58;;;;;;;3.85;1.15;;;;;;;12.87;77.01;92806.13;2049934;70;20150;-75
2022/09/10 05:35:25;;;;;;;2.38;1.20;;;;;;;12.86;77.20;92799.00;2044796;70;20190;-74
2022/09/10 05:37:50;;;;;;;5.20;1.42;;;;;;;13.06;76.44;92793.72;2050725;70;20160;-73
2022/09/10 05:40:16;;;;;;;4.68;1.10;;;;;;;13.23;74.36;92790.41;2049574;70;20186;-73
2022/09/10 05:42:42;;;;;;;1.55;1.00;;;;;;;13.31;75.96;92790.84;2046134;70;20284;-74
2022/09/10 05:45:12;;;;;;;5.97;0.85;;;;;;;13.35;75.31;92790.31;2046063;70;20627;-73
2022/09/10 05:47:38;;;;;;;1.75;1.08;;;;;;;13.46;74.74;92793.03;2047174;70;20146;-74
2022/09/10 05:50:06;;;;;;;2.90;0.80;;;;;;;13.50;75.57;92795.34;2048481;70;20166;-75
2022/09/10 05:52:31;;;;;;;0.73;0.70;;;;;;;13.53;76.36;92801.84;2047558;70;20515;-74
2022/09/10 05:55:01;;;;;;;4.95;0.90;;;;;;;13.63;74.89;92808.75;2046519;70;20154;-74
2022/09/10 05:57:26;;;;;;;1.63;1.10;;;;;;;13.54;75.45;92812.53;2047967;70;20486;-73
2022/09/10 05:59:52;;;;;;;4.78;1.52;;;;;;;13.31;76.83;92812.72;2051323;70;20169;-74
2022/09/10 06:02:18;;;;;;;1.95;1.17;;;;;;;13.54;74.39;92818.19;2045244;70;20632;-75
2022/09/10 06:04:44;;;;;;;1.85;1.10;;;;;;;13.48;77.04;92824.25;2046291;70;20142;-75
2022/09/10 06:07:11;;;;;;;1.02;0.90;;;;;;;13.73;76.24;92819.84;2051335;70;20230;-75
2022/09/10 06:09:37;;;;;;;2.03;1.15;;;;;;;13.97;74.22;92817.50;2050489;70;20509;-75
2022/09/10 06:12:13;;;;;;;3.85;1.23;;;;;;;13.66;75.46;92818.81;2049846;70;20154;-75
2022/09/10 06:14:39;;;;;;;1.33;1.05;;;;;;;13.93;75.08;92820.88;2048071;70;20162;-74
2022/09/10 06:17:05;;;;;;;2.90;1.17;;;;;;;14.11;74.37;92823.13;2049365;70;20174;-73
2022/09/10 06:19:31;;;;;;;2.08;1.15;;;;;;;14.16;74.39;92813.50;2049650;70;20246;-73
2022/09/10 06:21:57;;;;;;;1.38;1.10;;;;;;;14.27;71.25;92818.28;2050273;70;20154;-75
2022/09/10 06:24:24;;;;;;;4.30;1.00;;;;;;;14.31;70.64;92814.94;2050822;70;20156;-75
2022/09/10 06:26:53;;;;;;;3.58;0.88;;;;;;;14.16;73.15;92816.34;2048213;70;20158;-74
2022/09/10 06:29:21;;;;;;;2.35;0.90;;;;;;;14.24;72.85;92808.22;2047241;70;20620;-74
2022/09/10 06:31:47;;;;;;;1.88;0.90;;;;;;;14.33;72.29;92809.34;2047338;70;20248;-74
2022/09/10 06:34:15;;;;;;;1.85;1.00;;;;;;;14.41;73.02;92813.31;2049726;70;20281;-74
2022/09/10 06:36:42;;;;;;;5.13;0.80;;;;;;;14.54;71.68;92816.78;2050238;70;20158;-74
2022/09/10 06:39:08;;;;;;;1.73;0.90;;;;;;;14.59;73.28;92813.50;2049915;70;20153;-75
2022/09/10 06:41:53;;;;;;;1.10;1.00;;;;;;;14.64;70.48;92817.97;2045194;70;20221;-74
2022/09/10 06:44:38;;;;;;;0.85;0.80;;;;;;;14.79;70.45;92827.88;2050569;70;20153;-74
2022/09/10 06:47:21;;;;;;;1.15;1.02;;;;;;;14.83;71.04;92830.91;2043445;70;20243;-74
2022/09/10 06:49:47;;;;;;;3.45;0.85;;;;;;;14.57;71.78;92840.97;2051120;70;20199;-75
2022/09/10 06:52:14;;;;;;;3.10;1.10;;;;;;;14.74;71.70;92849.63;2048505;70;20261;-76
2022/09/10 06:54:40;;;;;;;1.27;0.70;;;;;;;14.60;71.33;92845.38;2049273;70;20158;-75
2022/09/10 06:57:28;;;;;;;2.05;0.85;;;;;;;14.84;70.00;92851.47;2047491;70;20150;-75
2022/09/10 06:59:53;;;;;;;4.35;1.08;;;;;;;14.82;70.20;92854.94;2049133;70;20534;-74
2022/09/10 07:02:19;;;;;;;0.90;0.75;;;;;;;14.88;70.21;92857.34;2047320;70;20293;-74
2022/09/10 07:04:46;;;;;;;2.95;0.82;;;;;;;14.96;68.79;92869.78;2052456;70;20486;-74
2022/09/10 07:07:13;;;;;;;1.63;0.70;;;;;;;15.01;70.54;92856.53;2047179;70;20245;-74
2022/09/10 07:09:39;;;;;;;2.55;0.93;;;;;;;15.05;67.71;92856.72;2049343;70;20153;-76
2022/09/10 07:12:08;;;;;;;0.93;0.80;;;;;;;14.95;68.12;92847.75;2046874;70;20152;-74
2022/09/10 07:14:35;;;;;;;1.17;0.90;;;;;;;15.00;70.19;92855.09;2048771;70;20253;-74
2022/09/10 07:17:04;;;;;;;3.25;0.90;;;;;;;14.98;69.22;92844.38;2047103;70;20226;-75
2022/09/10 07:19:35;;;;;;;5.35;1.02;;;;;;;15.00;67.82;92847.31;2049549;70;20150;-76
2022/09/10 07:22:03;;;;;;;1.30;0.80;;;;;;;15.10;67.69;92847.03;2049041;70;20166;-76
2022/09/10 07:24:31;;;;;;;2.33;2.00;;;;;;;14.88;68.68;92840.31;2046092;70;20263;-75
2022/09/10 07:27:05;;;;;;;3.80;1.90;;;;;;;14.77;69.00;92832.72;2049809;70;20191;-74
2022/09/10 07:29:34;;;;;;;5.75;1.85;;;;;;;14.88;69.41;92840.31;2049337;70;20177;-75
2022/09/10 07:32:02;;;;;;;4.15;2.10;;;;;;;15.18;69.48;92838.91;2049235;70;20206;-75
2022/09/10 07:34:29;;;;;;;1.25;1.15;;;;;;;15.40;67.36;92847.00;2049247;70;20625;-75
2022/09/10 07:36:55;;;;;;;2.13;1.25;;;;;;;15.26;68.61;92847.06;2047237;70;20134;-73
2022/09/10 07:39:22;;;;;;;1.35;1.25;;;;;;;15.52;67.62;92844.69;2050726;70;20490;-74
2022/09/10 07:41:48;;;;;;;3.40;1.27;;;;;;;15.38;67.99;92844.78;2050039;70;20601;-75
2022/09/10 07:44:15;;;;;;;1.42;1.10;;;;;;;15.51;66.60;92849.63;2050166;70;20193;-75
2022/09/10 07:46:45;;;;;;;1.48;0.88;;;;;;;15.52;66.05;92856.03;2050708;70;20571;-75
2022/09/10 07:49:13;;;;;;;1.33;0.75;;;;;;;15.26;66.05;92849.91;2050676;70;20146;-76
2022/09/10 07:51:41;;;;;;;2.67;0.85;;;;;;;15.14;67.09;92841.56;2049334;70;20251;-75
2022/09/10 07:54:07;;;;;;;2.42;0.75;;;;;;;15.02;68.24;92845.94;2050689;70;20173;-75
2022/09/10 07:56:39;;;;;;;2.80;0.70;;;;;;;15.39;66.13;92848.34;2050531;70;20261;-75
2022/09/10 07:59:07;;;;;;;3.17;1.00;;;;;;;15.37;67.11;92851.81;2050233;70;20134;-76
2022/09/10 08:01:41;;;;;;;1.75;1.00;;;;;;;15.67;66.31;92855.34;2049448;70;20146;-74
2022/09/10 08:04:07;;;;;;;1.90;1.10;;;;;;;15.90;66.52;92848.53;2050579;70;20597;-74
2022/09/10 08:06:36;;;;;;;3.50;0.90;;;;;;;16.10;66.55;92848.66;2050611;70;20146;-74
2022/09/10 08:09:06;;;;;;;2.72;1.00;;;;;;;16.16;64.80;92840.41;2053451;70;20617;-73
2022/09/10 08:11:33;;;;;;;1.70;1.10;;;;;;;16.40;65.24;92857.00;2049724;70;20137;-73
2022/09/10 08:14:00;;;;;;;2.10;1.30;;;;;;;16.47;64.27;92850.94;2050610;70;20138;-74
2022/09/10 08:16:27;;;;;;;1.23;1.00;;;;;;;16.65;63.41;92853.06;2050661;70;20585;-74
2022/09/10 08:18:59;;;;;;;2.25;1.10;;;;;;;16.92;62.76;92857.72;2049896;70;20146;-75
2022/09/10 08:21:28;;;;;;;2.10;1.00;;;;;;;16.79;61.01;92856.50;2049484;70;20238;-75
2022/09/10 08:23:56;;;;;;;1.00;0.82;;;;;;;16.78;61.43;92863.56;2048018;70;20173;-75
2022/09/10 08:26:26;;;;;;;1.45;0.90;;;;;;;16.63;59.90;92867.94;2049869;70;20218;-75
2022/09/10 08:28:56;;;;;;;4.00;1.20;;;;;;;17.14;60.23;92864.28;2047212;70;20514;-74
2022/09/10 08:31:25;;;;;;;3.15;0.90;;;;;;;17.12;59.63;92867.03;2044020;70;20747;-74
2022/09/10 08:34:13;;;;;;;1.85;1.15;;;;;;;17.34;60.54;92863.63;2047791;70;20182;-74
2022/09/10 08:36:42;;;;;;;1.90;1.13;;;;;;;17.50;59.80;92858.53;2047629;70;20494;-74
2022/09/10 08:39:10;;;;;;;1.00;0.90;;;;;;;17.59;59.23;92865.25;2047039;70;20550;-74
2022/09/10 08:41:37;;;;;;;1.50;1.10;;;;;;;17.59;60.90;92874.53;2047276;70;20197;-75
2022/09/10 08:44:27;;;;;;;2.83;0.85;;;;;;;17.40;61.26;92878.06;2051127;70;20547;-75
2022/09/10 08:47:22;;;;;;;3.13;1.60;;;;;;;17.47;59.91;92871.22;2049992;70;20150;-74
2022/09/10 08:49:59;;;;;;;3.65;1.10;;;;;;;17.56;58.91;92866.59;2048503;70;20232;-74
2022/09/10 08:52:42;;;;;;;2.47;1.10;;;;;;;17.21;58.96;92865.25;2050053;70;20181;-74
2022/09/10 08:55:17;;;;;;;2.13;0.95;;;;;;;17.08;59.45;92871.84;2047370;70;20646;-75
2022/09/10 08:57:53;;;;;;;2.50;0.90;;;;;;;17.27;59.23;92865.47;2056405;69;20160;-75
2022/09/10 09:00:33;;;;;;;1.60;1.00;;;;;;;17.24;59.00;92864.69;2056565;69;20145;-76
2022/09/10 09:03:10;;;;;;;2.63;1.05;;;;;;;17.13;59.13;92859.97;2050401;70;20158;-74
2022/09/10 09:05:46;;;;;;;2.25;1.10;;;;;;;17.00;60.40;92858.78;2055484;69;20508;-75
2022/09/10 09:08:24;;;;;;;2.85;0.88;;;;;;;16.78;60.46;92852.22;2053702;70;20142;-75
2022/09/10 09:11:18;;;;;;;6.88;1.00;;;;;;;17.14;60.01;92852.19;2050852;70;20307;-74
2022/09/10 09:14:11;;;;;;;1.87;0.90;;;;;;;16.97;60.49;92853.66;2049820;70;20612;-75
2022/09/10 09:17:06;;;;;;;1.73;0.98;;;;;;;16.97;60.31;92853.66;2056350;69;20264;-74
2022/09/10 09:19:49;;;;;;;1.65;1.00;;;;;;;17.19;60.10;92850.97;2053588;70;20166;-76
2022/09/10 09:22:18;;;;;;;1.08;0.93;;;;;;;17.36;59.44;92841.66;2050874;70;20300;-75
2022/09/10 09:24:57;;;;;;;1.27;0.85;;;;;;;17.23;59.04;92845.44;2049005;70;20244;-74
2022/09/10 09:27:28;;;;;;;1.05;0.70;;;;;;;17.32;58.82;92843.59;2050378;70;20153;-74
2022/09/10 09:30:30;;;;;;;3.28;1.00;;;;;;;17.55;58.91;92843.09;2050141;70;20242;-73
2022/09/10 09:33:03;;;;;;;1.30;0.93;;;;;;;17.59;59.84;92848.19;2046928;70;20632;-76
2022/09/10 09:35:45;;;;;;;2.20;0.80;;;;;;;17.51;59.46;92842.94;2052785;70;20628;-74
2022/09/10 09:38:18;;;;;;;2.53;0.90;;;;;;;17.45;60.39;92846.25;2050413;70;20586;-74
2022/09/10 09:40:54;;;;;;;2.42;0.93;;;;;;;17.35;60.44;92850.84;2050315;70;20189;-75
2022/09/10 09:43:44;;;;;;;1.83;0.90;;;;;;;17.48;60.17;92842.13;2049287;70;20645;-74
2022/09/10 09:46:16;;;;;;;1.92;1.05;;;;;;;17.61;61.09;92851.13;2045572;70;20221;-75
2022/09/10 09:48:45;;;;;;;2.97;1.95;;;;;;;17.33;60.02;92845.81;2047590;70;20142;-75
2022/09/10 09:51:20;;;;;;;2.42;1.50;;;;;;;17.61;59.25;92849.00;2049337;70;20174;-75
2022/09/10 09:54:17;;;;;;;2.95;1.48;;;;;;;17.79;59.19;92846.13;2050129;70;20265;-75
2022/09/10 09:56:49;;;;;;;2.10;1.10;;;;;;;17.84;59.06;92842.03;2049098;70;20154;-75
2022/09/10 09:59:26;;;;;;;3.22;1.10;;;;;;;17.72;59.63;92858.63;2050673;70;20700;-75
2022/09/10 10:01:56;;;;;;;1.08;0.93;;;;;;;17.76;59.67;92850.28;2052447;70;20476;-76
2022/09/10 10:04:29;;;;;;;1.45;1.00;;;;;;;17.78;59.89;92848.25;2053859;70;20152;-75
2022/09/10 10:07:00;;;;;;;1.90;1.10;;;;;;;17.58;60.83;92863.81;2053820;70;20177;-75
2022/09/10 10:09:30;;;;;;;1.13;0.95;;;;;;;17.59;60.58;92868.09;2052434;70;20197;-75
2022/09/10 10:12:04;;;;;;;1.42;1.17;;;;;;;17.59;60.15;92865.97;2046958;70;20240;-75
2022/09/10 10:14:31;;;;;;;1.92;1.10;;;;;;;17.87;61.52;92862.75;2047058;70;20270;-75
2022/09/10 10:16:59;;;;;;;2.08;0.90;;;;;;;17.60;61.28;92870.31;2047033;70;20143;-75
2022/09/10 10:19:30;;;;;;;1.98;0.90;;;;;;;17.32;62.12;92869.97;2049079;70;20206;-75
2022/09/10 10:21:58;;;;;;;1.88;0.90;;;;;;;17.46;62.05;92876.19;2048811;70;20173;-75
2022/09/10 10:24:32;;;;;;;1.38;0.90;;;;;;;17.59;61.31;92874.53;2053504;70;20670;-76
2022/09/10 10:26:59;;;;;;;1.45;0.80;;;;;;;17.61;62.42;92871.78;2053537;70;20155;-75
2022/09/10 10:29:25;;;;;;;3.38;1.17;;;;;;;17.58;61.50;92878.03;2053093;70;20599;-76
2022/09/10 10:31:52;;;;;;;1.20;0.98;;;;;;;17.48;64.74;92870.56;2053061;70;20247;-76
2022/09/10 10:34:33;;;;;;;2.38;0.85;;;;;;;17.44;63.54;92876.09;2053895;70;20150;-77
2022/09/10 10:37:08;;;;;;;3.33;0.70;;;;;;;17.40;65.30;92878.06;2054110;70;20140;-76
2022/09/10 10:39:55;;;;;;;1.92;0.80;;;;;;;17.40;64.79;92881.63;2053063;70;20249;-76
2022/09/10 10:42:34;;;;;;;3.45;0.80;;;;;;;17.35;64.23;92882.13;2052848;70;20145;-77
2022/09/10 10:45:46;;;;;;;3.38;0.95;;;;;;;17.27;67.68;92880.47;2054076;70;20153;-75
2022/09/10 10:48:32;;;;;;;3.25;0.90;;;;;;;17.25;68.27;92873.94;2045929;70;20169;-75
2022/09/10 10:51:37;;;;;;;0.88;0.70;;;;;;;17.24;68.32;92870.38;2044797;70;20156;-74
2022/09/10 10:54:40;;;;;;;3.58;1.13;;;;;;;17.34;68.05;92869.31;2039841;70;20136;-75
2022/09/10 10:57:44;;;;;;;1.13;0.88;;;;;;;17.36;67.14;92855.16;2041078;70;20189;-75
2022/09/10 11:00:15;;;;;;;2.55;0.98;;;;;;;17.33;69.67;92853.63;2040872;70;20251;-75
2022/09/10 11:03:08;;;;;;;1.50;0.82;;;;;;;17.45;66.10;92856.91;2042023;70;20159;-75
2022/09/10 11:05:41;;;;;;;2.42;1.67;;;;;;;17.06;67.07;92849.75;2045492;70;20155;-76
2022/09/10 11:08:09;;;;;;;5.03;2.10;;;;;;;16.80;69.50;92854.38;2047186;70;20234;-73
2022/09/10 11:10:45;;;;;;;2.70;2.50;;;;;;;16.93;68.36;92850.66;2045962;70;20181;-75
2022/09/10 11:13:35;;;;;;;4.25;2.65;;;;;;;17.43;67.29;92846.19;2046285;70;20258;-75
2022/09/10 11:16:28;;;;;;;2.30;1.20;;;;;;;17.30;67.30;92849.97;2046292;70;20166;-74
2022/09/10 11:19:06;;;;;;;1.20;1.02;;;;;;;17.58;66.86;92847.44;2046224;70;20153;-74
2022/09/10 11:22:11;;;;;;;0.70;0.70;;;;;;;18.09;64.62;92832.22;2045743;70;20146;-80
2022/09/10 11:24:44;;;;;;;1.65;1.25;;;;;;;22.29;53.09;92828.69;2050875;70;20158;-76
2022/09/10 11:27:20;;;;;;;3.15;1.60;;;;;;;24.82;48.26;92841.78;2053810;70;20202;-78
2022/09/10 11:30:13;;;;;;;3.08;2.42;;;;;;;26.88;43.82;92858.97;2050503;70;20216;-74
2022/09/10 11:32:44;;;;;;;2.50;1.52;;;;;;;28.72;40.49;92857.38;2047041;70;20210;-75
2022/09/10 11:35:21;;;;;;;0.70;0.68;;;;;;;30.72;35.69;92855.03;2050836;70;20256;-75
2022/09/10 11:38:21;;;;;;;2.30;1.00;;;;;;;32.23;33.48;92867.31;2053686;70;20154;-75
2022/09/10 11:40:59;;;;;;;0.90;0.75;;;;;;;31.55;32.21;92864.78;2051338;70;20151;-75
2022/09/10 11:43:36;;;;;;;1.30;1.00;;;;;;;31.05;32.91;92861.84;2049826;70;20154;-75
2022/09/10 11:46:25;;;;;;;1.65;0.98;;;;;;;31.34;31.20;92852.78;2050195;70;20202;-74
2022/09/10 11:49:23;;;;;;;1.45;0.60;;;;;;;28.97;35.15;92842.78;2050553;70;20589;-75
2022/09/10 11:51:50;;;;;;;0.60;0.45;;;;;;;26.84;36.25;92837.28;2051737;70;20166;-74
2022/09/10 11:54:21;;;;;;;0.40;0.32;;;;;;;26.92;35.81;92833.69;2050249;70;20217;-74
2022/09/10 11:57:10;;;;;;;0.88;0.52;;;;;;;29.18;33.34;92815.09;2047420;70;20662;-75